createdAt,value
2023-05-19T00:02:21.742Z,10.56
2023-05-19T00:05:07.708Z,10.54
2023-05-19T00:07:57.447Z,10.47
2023-05-19T00:10:43.478Z,10.44
2023-05-19T00:13:29.377Z,10.38
2023-05-19T00:16:14.895Z,10.34
2023-05-19T00:19:01.566Z,10.32
2023-05-19T00:21:46.974Z,10.26
2023-05-19T00:24:32.357Z,10.26
2023-05-19T00:27:17.500Z,10.21
2023-05-19T00:30:02.986Z,10.17
2023-05-19T00:32:48.782Z,10.13
2023-05-19T00:35:34.110Z,10.13
2023-05-19T00:38:19.468Z,10.07
2023-05-19T00:41:06.287Z,10.08
2023-05-19T00:43:52.021Z,10.06
2023-05-19T00:46:38.062Z,10.08
2023-05-19T00:49:23.570Z,10.09
2023-05-19T00:52:08.853Z,10.06
2023-05-19T00:54:55.753Z,10.05
2023-05-19T00:57:42.822Z,10.04
2023-05-19T01:00:28.277Z,10.02
2023-05-19T01:03:15.143Z,10.04
2023-05-19T01:06:04.843Z,10.04
2023-05-19T01:08:51.553Z,10.04
2023-05-19T01:11:37.014Z,10.06
2023-05-19T01:14:22.633Z,10.04
2023-05-19T01:17:20.612Z,10.05
2023-05-19T01:20:16.074Z,10.07
2023-05-19T01:23:18.022Z,10.07
2023-05-19T01:26:16.319Z,10.07
2023-05-19T01:29:32.036Z,10.05
2023-05-19T01:32:21.008Z,10.02
2023-05-19T01:35:09.086Z,10.01
2023-05-19T01:37:57.293Z,10.01
2023-05-19T01:40:43.855Z,10.07
2023-05-19T01:43:29.425Z,10.07
2023-05-19T01:46:15.668Z,10.03
2023-05-19T01:49:01.875Z,10.01
2023-05-19T01:51:47.336Z,9.97
2023-05-19T01:54:32.698Z,9.87
2023-05-19T01:57:51.613Z,9.78
2023-05-19T02:00:39.636Z,9.70
2023-05-19T02:03:38.503Z,9.66
2023-05-19T02:06:49.739Z,9.59
2023-05-19T02:09:44.853Z,9.55
2023-05-19T02:12:40.098Z,9.59
2023-05-19T02:15:29.970Z,9.58
2023-05-19T02:18:17.851Z,9.60
2023-05-19T02:21:03.236Z,9.52
2023-05-19T02:23:50.676Z,9.44
2023-05-19T02:26:38.289Z,9.36
2023-05-19T02:29:23.557Z,9.29
2023-05-19T02:32:09.473Z,9.19
2023-05-19T02:34:56.421Z,9.17
2023-05-19T02:37:41.664Z,9.19
2023-05-19T02:40:26.922Z,9.22
2023-05-19T02:43:12.111Z,9.18
2023-05-19T02:45:57.338Z,9.18
2023-05-19T02:48:44.686Z,9.26
2023-05-19T02:51:30.041Z,9.33
2023-05-19T02:54:15.646Z,9.39
2023-05-19T02:57:01.375Z,9.41
2023-05-19T02:59:47.194Z,9.46
2023-05-19T03:02:34.099Z,9.50
2023-05-19T03:05:20.064Z,9.48
2023-05-19T03:08:06.163Z,9.50
2023-05-19T03:10:51.657Z,9.47
2023-05-19T03:13:37.154Z,9.48
2023-05-19T03:16:22.812Z,9.52
2023-05-19T03:19:09.228Z,9.51
2023-05-19T03:21:56.321Z,9.53
2023-05-19T03:24:42.125Z,9.56
2023-05-19T03:27:27.104Z,9.58
2023-05-19T03:30:13.500Z,9.58
2023-05-19T03:33:12.167Z,9.54
2023-05-19T03:35:59.008Z,9.54
2023-05-19T03:38:49.562Z,9.59
2023-05-19T03:41:34.839Z,9.61
2023-05-19T03:44:21.235Z,9.65
2023-05-19T03:47:06.981Z,9.72
2023-05-19T03:50:17.357Z,9.73
2023-05-19T03:53:20.832Z,9.82
2023-05-19T03:56:07.568Z,9.88
2023-05-19T03:58:54.707Z,9.93
2023-05-19T04:01:39.902Z,10.02
2023-05-19T04:04:25.594Z,10.09
2023-05-19T04:07:11.675Z,10.14
2023-05-19T04:09:57.245Z,10.25
2023-05-19T04:12:42.559Z,10.37
2023-05-19T04:15:28.213Z,10.46
2023-05-19T04:18:13.867Z,10.54
2023-05-19T04:20:59.365Z,10.63
2023-05-19T04:23:44.695Z,10.73
2023-05-19T04:26:30.991Z,10.82
2023-05-19T04:29:17.936Z,10.81
2023-05-19T04:32:07.748Z,10.80
2023-05-19T04:34:53.805Z,10.82
2023-05-19T04:37:45.967Z,10.86
2023-05-19T04:40:33.560Z,10.98
2023-05-19T04:43:19.310Z,11.08
2023-05-19T04:46:06.157Z,11.15
2023-05-19T04:48:53.113Z,11.19
2023-05-19T04:51:41.307Z,11.25
2023-05-19T04:54:27.671Z,11.34
2023-05-19T04:57:14.523Z,11.47
2023-05-19T05:00:02.444Z,11.56
2023-05-19T05:02:57.589Z,11.54
2023-05-19T05:05:44.415Z,11.62
2023-05-19T05:08:30.195Z,11.53
2023-05-19T05:11:15.948Z,11.44
2023-05-19T05:14:01.824Z,11.44
2023-05-19T05:16:49.469Z,11.53
2023-05-19T05:19:40.708Z,11.60
2023-05-19T05:22:26.442Z,11.62
2023-05-19T05:25:13.178Z,11.53
2023-05-19T05:27:59.951Z,11.53
2023-05-19T05:30:46.316Z,11.53
2023-05-19T05:33:33.245Z,11.61
2023-05-19T05:36:19.008Z,11.70
2023-05-19T05:39:05.585Z,11.78
2023-05-19T05:41:51.433Z,11.90
2023-05-19T05:44:36.820Z,12.00
2023-05-19T05:47:24.389Z,12.15
2023-05-19T05:50:11.015Z,12.12
2023-05-19T05:52:59.590Z,12.02
2023-05-19T05:55:49.322Z,12.03
2023-05-19T05:58:37.329Z,12.03
2023-05-19T06:01:23.992Z,12.14
2023-05-19T06:04:10.466Z,12.44
2023-05-19T06:07:00.814Z,12.65
2023-05-19T06:09:49.384Z,12.69
2023-05-19T06:12:35.281Z,12.60
2023-05-19T06:15:22.027Z,12.49
2023-05-19T06:18:33.479Z,12.47
2023-05-19T06:21:19.403Z,12.73
2023-05-19T06:24:04.935Z,12.98
2023-05-19T06:26:50.100Z,12.87
2023-05-19T06:29:37.193Z,12.80
2023-05-19T06:32:25.098Z,12.90
2023-05-19T06:35:11.134Z,13.15
2023-05-19T06:37:59.649Z,13.38
2023-05-19T06:40:45.053Z,13.49
2023-05-19T06:43:30.333Z,13.47
2023-05-19T06:46:20.539Z,13.51
2023-05-19T06:49:05.877Z,13.58
2023-05-19T06:51:56.360Z,13.70
2023-05-19T06:54:41.533Z,13.86
2023-05-19T06:57:28.293Z,13.95
2023-05-19T07:00:30.577Z,14.08
2023-05-19T07:03:19.031Z,13.88
2023-05-19T07:06:07.080Z,14.08
2023-05-19T07:08:53.599Z,14.22
2023-05-19T07:11:39.554Z,14.43
2023-05-19T07:14:25.665Z,14.62
2023-05-19T07:17:11.006Z,14.71
2023-05-19T07:20:01.572Z,14.75
2023-05-19T07:22:47.317Z,14.85
2023-05-19T07:25:33.544Z,15.04
2023-05-19T07:28:18.711Z,15.07
2023-05-19T07:31:04.195Z,15.13
2023-05-19T07:33:49.561Z,15.32
2023-05-19T07:36:35.949Z,15.36
2023-05-19T07:39:21.408Z,15.27
2023-05-19T07:42:06.608Z,15.07
2023-05-19T07:44:51.915Z,15.24
2023-05-19T07:47:39.794Z,15.55
2023-05-19T07:50:25.438Z,15.91
2023-05-19T07:53:11.121Z,16.20
2023-05-19T07:55:58.359Z,16.57
2023-05-19T07:58:44.918Z,16.33
2023-05-19T08:01:32.123Z,16.27
2023-05-19T08:04:17.332Z,16.80
2023-05-19T08:07:03.423Z,16.90
2023-05-19T08:09:48.713Z,16.79
2023-05-19T08:12:34.107Z,17.10
2023-05-19T08:15:20.135Z,17.31
2023-05-19T08:18:05.542Z,17.47
2023-05-19T08:20:50.982Z,17.63
2023-05-19T08:23:37.295Z,17.45
2023-05-19T08:26:22.834Z,17.54
2023-05-19T08:29:08.271Z,17.61
2023-05-19T08:31:53.901Z,17.45
2023-05-19T08:34:39.381Z,17.25
2023-05-19T08:37:24.911Z,17.22
2023-05-19T08:40:17.293Z,17.58
2023-05-19T08:43:02.282Z,17.62
2023-05-19T08:45:48.288Z,17.56
2023-05-19T08:48:35.342Z,17.39
2023-05-19T08:52:00.496Z,17.72
2023-05-19T08:55:09.525Z,17.70
2023-05-19T08:57:56.086Z,17.44
2023-05-19T09:00:42.461Z,17.30
2023-05-19T09:03:29.123Z,17.53
2023-05-19T09:06:14.400Z,17.49
2023-05-19T09:08:59.986Z,17.32
2023-05-19T09:11:46.935Z,17.53
2023-05-19T09:14:33.024Z,17.91
2023-05-19T09:17:18.940Z,18.20
2023-05-19T09:20:10.746Z,18.47
2023-05-19T09:22:57.324Z,18.43
2023-05-19T09:25:50.592Z,18.28
2023-05-19T09:28:36.904Z,17.96
2023-05-19T09:31:22.516Z,18.11
2023-05-19T09:34:14.403Z,18.27
2023-05-19T09:36:59.945Z,18.40
2023-05-19T09:39:49.218Z,18.08
2023-05-19T09:42:37.859Z,18.13
2023-05-19T09:45:23.193Z,18.07
2023-05-19T09:48:08.714Z,18.38
2023-05-19T09:50:54.572Z,17.95
2023-05-19T09:53:39.835Z,17.96
2023-05-19T09:56:25.489Z,18.10
2023-05-19T09:59:15.323Z,17.91
2023-05-19T10:02:01.270Z,17.96
2023-05-19T10:04:46.686Z,17.65
2023-05-19T10:07:33.637Z,17.70
2023-05-19T10:10:22.582Z,17.88
2023-05-19T10:13:08.157Z,17.96
2023-05-19T10:15:58.975Z,18.15
2023-05-19T10:18:45.778Z,18.72
2023-05-19T10:21:31.190Z,18.64
2023-05-19T10:24:17.662Z,18.91
2023-05-19T10:27:08.331Z,18.95
2023-05-19T10:29:57.578Z,19.20
2023-05-19T10:32:45.207Z,19.29
2023-05-19T10:35:50.589Z,19.54
2023-05-19T10:38:52.773Z,19.72
2023-05-19T10:42:12.335Z,19.63
2023-05-19T10:45:03.774Z,19.27
2023-05-19T10:47:51.604Z,19.51
2023-05-19T10:50:39.603Z,19.37
2023-05-19T10:53:31.993Z,19.51
2023-05-19T10:56:33.795Z,19.59
2023-05-19T10:59:35.552Z,19.39
2023-05-19T11:02:41.452Z,19.38
2023-05-19T11:05:30.155Z,19.27
2023-05-19T11:08:17.400Z,18.92
2023-05-19T11:11:16.816Z,18.90
2023-05-19T11:14:02.073Z,19.42
2023-05-19T11:16:48.938Z,19.57
2023-05-19T11:19:37.283Z,19.84
2023-05-19T11:22:25.776Z,19.85
2023-05-19T11:25:11.359Z,19.76
2023-05-19T11:27:57.872Z,19.70
2023-05-19T11:30:45.842Z,19.10
2023-05-19T11:33:32.491Z,19.12
2023-05-19T11:36:18.420Z,19.43
2023-05-19T11:39:04.430Z,19.61
2023-05-19T11:41:51.513Z,19.44
2023-05-19T11:44:38.664Z,19.40
2023-05-19T11:47:24.168Z,19.35
2023-05-19T11:50:12.737Z,19.49
2023-05-19T11:53:00.089Z,19.56
2023-05-19T11:55:47.155Z,19.57
2023-05-19T11:58:32.770Z,19.42
2023-05-19T12:01:17.896Z,19.54
2023-05-19T12:04:08.396Z,19.27
2023-05-19T12:06:54.395Z,19.35
2023-05-19T12:09:40.275Z,19.43
2023-05-19T12:12:26.085Z,19.27
2023-05-19T12:15:11.693Z,19.35
2023-05-19T12:17:59.032Z,19.69
2023-05-19T12:20:44.708Z,19.77
2023-05-19T12:23:30.808Z,19.83
2023-05-19T12:26:15.961Z,19.72
2023-05-19T12:29:01.531Z,19.70
2023-05-19T12:31:47.386Z,20.01
2023-05-19T12:34:32.642Z,20.19
2023-05-19T12:37:19.403Z,20.48
2023-05-19T12:40:05.410Z,20.18
2023-05-19T12:42:53.267Z,20.04
2023-05-19T12:45:42.553Z,19.71
2023-05-19T12:48:28.498Z,19.85
2023-05-19T12:51:18.798Z,20.03
2023-05-19T12:54:07.318Z,19.82
2023-05-19T12:56:52.640Z,19.63
2023-05-19T12:59:38.835Z,19.85
2023-05-19T13:02:24.676Z,19.62
2023-05-19T13:05:10.005Z,19.74
2023-05-19T13:08:00.168Z,19.87
2023-05-19T13:10:46.764Z,19.50
2023-05-19T13:13:32.787Z,19.42
2023-05-19T13:16:17.886Z,19.61
2023-05-19T13:19:03.331Z,19.54
2023-05-19T13:21:50.453Z,19.27
2023-05-19T13:24:35.522Z,19.34
2023-05-19T13:27:20.982Z,19.25
2023-05-19T13:30:08.882Z,19.38
2023-05-19T13:32:54.073Z,19.60
2023-05-19T13:35:40.123Z,19.33
2023-05-19T13:38:25.305Z,19.47
2023-05-19T13:41:10.947Z,19.46
2023-05-19T13:43:59.765Z,19.33
2023-05-19T13:46:47.405Z,19.51
2023-05-19T13:49:33.722Z,19.69
2023-05-19T13:52:21.131Z,19.68
2023-05-19T13:55:07.530Z,19.68
2023-05-19T13:57:53.158Z,19.61
2023-05-19T14:00:39.035Z,19.30
2023-05-19T14:03:25.155Z,19.35
2023-05-19T14:06:10.927Z,19.48
2023-05-19T14:08:56.418Z,19.49
2023-05-19T14:11:42.456Z,19.12
2023-05-19T14:14:27.758Z,19.18
2023-05-19T14:17:12.953Z,19.23
2023-05-19T14:19:58.134Z,19.31
2023-05-19T14:22:43.401Z,19.44
2023-05-19T14:25:28.826Z,19.31
2023-05-19T14:28:14.114Z,19.09
2023-05-19T14:30:59.324Z,18.95
2023-05-19T14:33:45.004Z,19.05
2023-05-19T14:36:30.204Z,19.25
2023-05-19T14:39:15.698Z,19.66
2023-05-19T14:42:01.290Z,19.45
2023-05-19T14:44:46.425Z,19.25
2023-05-19T14:47:31.800Z,18.91
2023-05-19T14:50:17.175Z,19.03
2023-05-19T14:53:02.350Z,19.07
2023-05-19T14:55:49.511Z,19.11
2023-05-19T14:58:34.771Z,19.21
2023-05-19T15:01:20.197Z,19.13
2023-05-19T15:04:05.801Z,18.87
2023-05-19T15:07:05.782Z,18.72
2023-05-19T15:09:55.482Z,18.84
2023-05-19T15:12:40.581Z,18.94
2023-05-19T15:15:26.717Z,19.03
2023-05-19T15:18:12.987Z,18.84
2023-05-19T15:20:58.016Z,18.47
2023-05-19T15:23:43.465Z,18.30
2023-05-19T15:26:29.745Z,18.37
2023-05-19T15:29:15.485Z,18.28
2023-05-19T15:32:00.935Z,17.99
2023-05-19T15:34:46.120Z,18.00
2023-05-19T15:37:31.172Z,17.98
2023-05-19T15:40:16.685Z,17.94
2023-05-19T15:43:01.994Z,18.08
2023-05-19T15:45:48.196Z,18.13
2023-05-19T15:48:33.385Z,18.16
2023-05-19T15:51:18.652Z,18.18
2023-05-19T15:54:04.163Z,18.35
2023-05-19T15:56:49.391Z,18.32
2023-05-19T15:59:34.854Z,18.23
2023-05-19T16:02:20.190Z,18.17
2023-05-19T16:05:05.482Z,18.03
2023-05-19T16:07:50.633Z,18.19
2023-05-19T16:10:36.043Z,18.16
2023-05-19T16:13:21.912Z,18.23
2023-05-19T16:16:07.689Z,18.38
2023-05-19T16:18:53.076Z,18.45
2023-05-19T16:21:38.429Z,18.40
2023-05-19T16:24:24.090Z,18.08
2023-05-19T16:27:09.697Z,17.92
2023-05-19T16:29:55.181Z,17.86
2023-05-19T16:32:40.632Z,17.76
2023-05-19T16:35:27.719Z,17.76
2023-05-19T16:38:13.119Z,17.73
2023-05-19T16:40:58.470Z,17.78
2023-05-19T16:43:43.757Z,17.68
2023-05-19T16:46:31.472Z,17.63
2023-05-19T16:49:16.967Z,17.58
2023-05-19T16:52:02.389Z,17.58
2023-05-19T16:54:47.630Z,17.63
2023-05-19T16:57:47.164Z,17.51
2023-05-19T17:00:32.522Z,17.43
2023-05-19T17:03:18.355Z,17.36
2023-05-19T17:06:04.045Z,17.38
2023-05-19T17:08:49.194Z,17.35
2023-05-19T17:11:34.340Z,17.30
2023-05-19T17:14:19.864Z,17.21
2023-05-19T17:17:05.134Z,17.07
2023-05-19T17:19:50.833Z,17.03
2023-05-19T17:22:36.526Z,16.97
2023-05-19T17:25:21.973Z,17.01
2023-05-19T17:28:07.472Z,16.95
2023-05-19T17:30:52.693Z,16.95
2023-05-19T17:33:38.565Z,16.95
2023-05-19T17:36:24.011Z,16.95
2023-05-19T17:39:09.271Z,17.03
2023-05-19T17:41:54.552Z,16.99
2023-05-19T17:44:39.956Z,17.02
2023-05-19T17:47:25.647Z,17.04
2023-05-19T17:50:11.350Z,17.05
2023-05-19T17:52:56.948Z,17.08
2023-05-19T17:55:49.796Z,17.10
2023-05-19T17:58:35.995Z,17.12
2023-05-19T18:01:23.999Z,17.08
2023-05-19T18:04:09.815Z,17.03
2023-05-19T18:06:56.512Z,16.94
2023-05-19T18:09:47.764Z,16.82
2023-05-19T18:12:33.181Z,16.74
2023-05-19T18:15:18.300Z,16.62
2023-05-19T18:18:05.558Z,16.57
2023-05-19T18:20:51.077Z,16.52
2023-05-19T18:23:36.424Z,16.43
2023-05-19T18:26:24.360Z,16.36
2023-05-19T18:29:10.873Z,16.32
2023-05-19T18:31:56.125Z,16.31
2023-05-19T18:34:41.461Z,16.27
2023-05-19T18:37:27.001Z,16.21
2023-05-19T18:40:11.988Z,16.18
2023-05-19T18:42:57.258Z,16.11
2023-05-19T18:45:42.723Z,16.07
2023-05-19T18:48:28.060Z,16.04
2023-05-19T18:51:15.710Z,16.02
2023-05-19T18:54:01.355Z,15.95
2023-05-19T18:56:49.977Z,15.86
2023-05-19T18:59:35.386Z,15.77
2023-05-19T19:02:20.615Z,15.73
2023-05-19T19:05:09.415Z,15.70
2023-05-19T19:07:54.931Z,15.63
2023-05-19T19:10:40.714Z,15.61
2023-05-19T19:13:26.169Z,15.57
2023-05-19T19:16:11.292Z,15.50
2023-05-19T19:18:56.885Z,15.48
2023-05-19T19:21:41.896Z,15.46
2023-05-19T19:24:28.417Z,15.47
2023-05-19T19:27:16.184Z,15.41
2023-05-19T19:30:01.796Z,15.38
2023-05-19T19:32:47.445Z,15.33
2023-05-19T19:35:32.942Z,15.31
2023-05-19T19:38:18.053Z,15.27
2023-05-19T19:41:03.759Z,15.24
2023-05-19T19:43:49.217Z,15.21
2023-05-19T19:46:34.581Z,15.20
2023-05-19T19:49:20.297Z,15.14
2023-05-19T19:52:05.978Z,15.15
2023-05-19T19:54:51.306Z,15.12
2023-05-19T19:57:36.819Z,15.08
2023-05-19T20:00:22.444Z,15.05
2023-05-19T20:03:07.787Z,14.99
2023-05-19T20:05:55.632Z,14.98
2023-05-19T20:08:41.427Z,14.96
2023-05-19T20:11:26.807Z,14.95
2023-05-19T20:14:11.944Z,14.92
2023-05-19T20:16:57.478Z,14.88
2023-05-19T20:19:46.974Z,14.86
2023-05-19T20:22:32.426Z,14.84
2023-05-19T20:25:17.806Z,14.82
2023-05-19T20:28:02.887Z,14.84
2023-05-19T20:30:48.142Z,14.80
2023-05-19T20:33:33.264Z,14.78
2023-05-19T20:36:18.661Z,14.77
2023-05-19T20:39:04.251Z,14.74
2023-05-19T20:41:49.362Z,14.74
2023-05-19T20:44:34.854Z,14.71
2023-05-19T20:47:20.919Z,14.69
2023-05-19T20:50:07.490Z,14.64
2023-05-19T20:52:52.689Z,14.61
2023-05-19T20:55:38.738Z,14.59
2023-05-19T20:58:26.692Z,14.55
2023-05-19T21:01:12.537Z,14.54
2023-05-19T21:03:57.783Z,14.54
2023-05-19T21:06:42.973Z,14.50
2023-05-19T21:09:28.358Z,14.47
2023-05-19T21:12:16.097Z,14.43
2023-05-19T21:15:03.505Z,14.43
2023-05-19T21:17:49.174Z,14.40
2023-05-19T21:20:34.749Z,14.39
2023-05-19T21:23:20.338Z,14.35
2023-05-19T21:26:07.151Z,14.36
2023-05-19T21:28:52.741Z,14.31
2023-05-19T21:31:38.411Z,14.30
2023-05-19T21:34:23.610Z,14.26
2023-05-19T21:37:09.179Z,14.24
2023-05-19T21:39:54.294Z,14.21
2023-05-19T21:42:39.426Z,14.19
2023-05-19T21:45:24.511Z,14.16
2023-05-19T21:48:10.021Z,14.15
2023-05-19T21:50:55.740Z,14.11
2023-05-19T21:53:41.234Z,14.09
2023-05-19T21:56:26.463Z,14.05
2023-05-19T21:59:12.040Z,14.04
2023-05-19T22:01:57.160Z,14.00
2023-05-19T22:04:42.932Z,13.97
2023-05-19T22:07:28.572Z,13.98
2023-05-19T22:10:14.208Z,13.93
2023-05-19T22:12:59.483Z,13.87
2023-05-19T22:15:44.953Z,13.83
2023-05-19T22:18:30.303Z,13.82
2023-05-19T22:21:15.941Z,13.79
2023-05-19T22:24:01.196Z,13.76
2023-05-19T22:26:47.257Z,13.74
2023-05-19T22:29:32.877Z,13.70
2023-05-19T22:32:19.455Z,13.67
2023-05-19T22:35:06.494Z,13.65
2023-05-19T22:37:51.779Z,13.65
2023-05-19T22:40:37.248Z,13.62
2023-05-19T22:43:22.478Z,13.62
2023-05-19T22:46:07.921Z,13.60
2023-05-19T22:48:53.147Z,13.57
2023-05-19T22:51:39.310Z,13.54
2023-05-19T22:54:24.653Z,13.53
2023-05-19T22:57:10.335Z,13.52
2023-05-19T22:59:56.008Z,13.46
2023-05-19T23:02:41.791Z,13.43
2023-05-19T23:05:27.264Z,13.43
2023-05-19T23:08:12.861Z,13.38
2023-05-19T23:11:02.303Z,13.31
2023-05-19T23:13:47.582Z,13.32
2023-05-19T23:16:32.791Z,13.29
2023-05-19T23:19:18.160Z,13.27
2023-05-19T23:22:03.801Z,13.25
2023-05-19T23:24:49.067Z,13.23
2023-05-19T23:27:37.619Z,13.22
2023-05-19T23:30:22.771Z,13.18
2023-05-19T23:33:08.163Z,13.11
2023-05-19T23:35:54.062Z,13.07
2023-05-19T23:38:39.321Z,13.03
2023-05-19T23:41:24.875Z,13.02
2023-05-19T23:44:12.598Z,13.03
2023-05-19T23:46:58.067Z,13.01
2023-05-19T23:49:43.441Z,13.00
2023-05-19T23:52:28.461Z,12.96
2023-05-19T23:55:14.964Z,12.91
2023-05-19T23:58:00.210Z,12.88
